createdAt,value
2022-10-14T00:01:20.764Z,24.67
2022-10-14T00:03:49.451Z,24.65
2022-10-14T00:06:26.131Z,26.30
2022-10-14T00:08:54.653Z,24.55
2022-10-14T00:11:28.442Z,24.55
2022-10-14T00:14:01.702Z,25.55
2022-10-14T00:16:35.035Z,24.63
2022-10-14T00:19:03.386Z,24.50
2022-10-14T00:21:31.795Z,26.33
2022-10-14T00:23:59.176Z,25.48
2022-10-14T00:26:33.329Z,25.33
2022-10-14T00:29:02.065Z,24.83
2022-10-14T00:31:32.449Z,25.15
2022-10-14T00:34:00.455Z,25.23
2022-10-14T00:36:28.011Z,24.17
2022-10-14T00:38:55.918Z,26.13
2022-10-14T00:41:29.002Z,26.50
2022-10-14T00:44:16.577Z,25.38
2022-10-14T00:46:49.931Z,24.50
2022-10-14T00:49:19.126Z,26.70
2022-10-14T00:52:22.609Z,26.48
2022-10-14T00:55:01.662Z,26.98
2022-10-14T00:57:30.538Z,26.38
2022-10-14T01:00:04.366Z,28.17
2022-10-14T01:02:31.805Z,24.90
2022-10-14T01:05:00.697Z,25.98
2022-10-14T01:07:33.698Z,28.30
2022-10-14T01:10:01.602Z,26.90
2022-10-14T01:12:59.017Z,28.30
2022-10-14T01:15:48.596Z,29.60
2022-10-14T01:18:26.850Z,28.02
2022-10-14T01:21:05.240Z,26.80
2022-10-14T01:23:56.544Z,27.42
2022-10-14T01:26:26.921Z,28.13
2022-10-14T01:29:13.798Z,30.10
2022-10-14T01:31:47.274Z,29.90
2022-10-14T01:34:23.632Z,31.50
2022-10-14T01:37:02.991Z,30.33
2022-10-14T01:39:37.851Z,29.45
2022-10-14T01:42:11.312Z,29.35
2022-10-14T01:44:43.547Z,29.33
2022-10-14T01:49:47.315Z,30.20
2022-10-14T01:52:22.808Z,27.65
2022-10-14T01:54:54.475Z,27.83
2022-10-14T01:57:28.647Z,29.73
2022-10-14T01:59:56.889Z,28.55
2022-10-14T02:02:25.238Z,28.98
2022-10-14T02:04:52.646Z,29.60
2022-10-14T02:07:49.869Z,31.20
2022-10-14T02:10:34.183Z,31.13
2022-10-14T02:13:17.638Z,29.30
2022-10-14T02:16:12.365Z,30.48
2022-10-14T02:18:45.979Z,29.48
2022-10-14T02:21:34.575Z,29.77
2022-10-14T02:24:06.838Z,29.45
2022-10-14T02:26:37.000Z,28.90
2022-10-14T02:29:05.893Z,29.85
2022-10-14T02:31:37.341Z,30.05
2022-10-14T02:34:09.063Z,30.55
2022-10-14T02:36:38.772Z,29.42
2022-10-14T02:39:09.807Z,28.67
2022-10-14T02:41:38.813Z,32.40
2022-10-14T02:44:08.513Z,31.52
2022-10-14T02:46:38.835Z,32.08
2022-10-14T02:49:09.331Z,30.67
2022-10-14T02:51:36.770Z,30.35
2022-10-14T02:54:04.180Z,30.15
2022-10-14T02:56:31.631Z,30.90
2022-10-14T02:59:04.305Z,30.75
2022-10-14T03:01:37.191Z,30.58
2022-10-14T03:04:05.836Z,31.63
2022-10-14T03:06:33.536Z,31.15
2022-10-14T03:09:01.418Z,34.33
2022-10-14T03:11:32.473Z,30.50
2022-10-14T03:14:04.915Z,31.40
2022-10-14T03:16:32.806Z,30.83
2022-10-14T03:19:00.210Z,32.10
2022-10-14T03:21:40.933Z,34.00
2022-10-14T03:24:14.614Z,32.00
2022-10-14T03:26:42.919Z,31.95
2022-10-14T03:29:10.329Z,31.70
2022-10-14T03:34:26.910Z,30.55
2022-10-14T03:37:04.182Z,29.30
2022-10-14T03:39:32.864Z,32.47
2022-10-14T03:42:05.694Z,32.45
2022-10-14T03:44:43.349Z,30.65
2022-10-14T03:47:18.185Z,32.28
2022-10-14T03:49:46.438Z,33.10
2022-10-14T03:52:21.717Z,33.20
2022-10-14T03:55:00.650Z,29.80
2022-10-14T03:57:28.633Z,30.70
2022-10-14T03:59:59.251Z,28.80
2022-10-14T04:02:42.062Z,30.08
2022-10-14T04:05:38.323Z,31.00
2022-10-14T04:08:11.745Z,31.30
2022-10-14T04:10:43.160Z,29.03
2022-10-14T04:13:14.909Z,33.40
2022-10-14T04:15:42.366Z,30.08
2022-10-14T04:18:23.882Z,31.83
2022-10-14T04:20:53.785Z,32.45
2022-10-14T04:23:23.579Z,31.60
2022-10-14T04:25:55.184Z,30.52
2022-10-14T04:28:24.947Z,32.65
2022-10-14T04:31:05.817Z,33.58
2022-10-14T04:33:45.090Z,34.20
2022-10-14T04:36:19.849Z,33.80
2022-10-14T04:38:47.267Z,32.60
2022-10-14T04:41:14.729Z,35.05
2022-10-14T04:43:47.696Z,34.30
2022-10-14T04:46:38.184Z,33.33
2022-10-14T04:49:05.798Z,35.50
2022-10-14T04:51:39.211Z,34.28
2022-10-14T04:54:31.563Z,33.53
2022-10-14T04:57:01.106Z,34.17
2022-10-14T04:59:29.361Z,34.53
2022-10-14T05:02:07.414Z,32.83
2022-10-14T05:04:47.314Z,32.38
2022-10-14T05:07:15.477Z,32.20
2022-10-14T05:09:48.638Z,31.63
2022-10-14T05:12:37.882Z,33.45
2022-10-14T05:15:06.615Z,32.53
2022-10-14T05:17:48.113Z,34.60
2022-10-14T05:20:19.313Z,34.50
2022-10-14T05:22:51.301Z,31.05
2022-10-14T05:25:19.206Z,36.08
2022-10-14T05:27:47.542Z,35.42
2022-10-14T05:30:15.229Z,35.75
2022-10-14T05:32:47.550Z,34.90
2022-10-14T05:35:33.984Z,39.05
2022-10-14T05:38:06.855Z,36.00
2022-10-14T05:40:38.407Z,36.85
2022-10-14T05:43:08.924Z,37.38
2022-10-14T05:45:40.122Z,37.20
2022-10-14T05:48:09.062Z,34.85
2022-10-14T05:50:37.324Z,33.05
2022-10-14T05:53:10.650Z,32.97
2022-10-14T05:55:42.470Z,35.45
2022-10-14T05:58:10.001Z,34.72
2022-10-14T06:00:40.974Z,33.92
2022-10-14T06:03:13.364Z,36.88
2022-10-14T06:05:41.557Z,31.98
2022-10-14T06:08:09.566Z,31.40
2022-10-14T06:10:39.073Z,33.95
2022-10-14T06:13:06.629Z,31.27
2022-10-14T06:15:36.958Z,33.40
2022-10-14T06:18:04.718Z,33.60
2022-10-14T06:20:33.440Z,31.70
2022-10-14T06:23:02.261Z,33.00
2022-10-14T06:25:30.711Z,32.70
2022-10-14T06:28:05.239Z,34.13
2022-10-14T06:30:33.564Z,30.55
2022-10-14T06:33:00.961Z,32.50
2022-10-14T06:35:28.548Z,32.22
2022-10-14T06:37:55.973Z,32.03
2022-10-14T06:40:23.439Z,32.20
2022-10-14T06:42:51.026Z,34.35
2022-10-14T06:45:18.441Z,36.35
2022-10-14T06:47:45.882Z,34.35
2022-10-14T06:50:13.479Z,35.50
2022-10-14T06:52:40.918Z,37.20
2022-10-14T06:55:08.392Z,34.35
2022-10-14T06:57:35.773Z,35.20
2022-10-14T07:00:05.014Z,37.70
2022-10-14T07:02:37.137Z,38.00
2022-10-14T07:05:06.603Z,36.63
2022-10-14T07:07:34.034Z,38.80
2022-10-14T07:10:01.558Z,39.05
2022-10-14T07:12:28.924Z,42.60
2022-10-14T07:14:57.075Z,37.28
2022-10-14T07:17:24.898Z,34.22
2022-10-14T07:19:52.557Z,50.00
2022-10-14T07:22:20.216Z,65.03
2022-10-14T07:24:47.802Z,54.95
2022-10-14T07:27:16.214Z,42.25
2022-10-14T07:29:43.678Z,41.55
2022-10-14T07:32:11.150Z,40.97
2022-10-14T07:34:38.554Z,43.30
2022-10-14T07:37:08.586Z,40.38
2022-10-14T07:39:35.949Z,42.00
2022-10-14T07:42:03.591Z,47.22
2022-10-14T07:44:30.982Z,48.42
2022-10-14T07:46:59.283Z,52.25
2022-10-14T07:49:26.670Z,56.35
2022-10-14T07:51:54.032Z,52.03
2022-10-14T07:54:24.458Z,53.65
2022-10-14T07:56:52.534Z,55.03
2022-10-14T07:59:20.907Z,50.72
2022-10-14T08:01:49.997Z,52.90
2022-10-14T08:04:17.773Z,51.30
2022-10-14T08:06:48.034Z,53.63
2022-10-14T08:09:16.820Z,50.28
2022-10-14T08:11:45.118Z,56.08
2022-10-14T08:14:13.166Z,55.78
2022-10-14T08:16:40.800Z,56.10
2022-10-14T08:19:14.425Z,54.15
2022-10-14T08:21:43.628Z,53.85
2022-10-14T08:24:11.652Z,51.58
2022-10-14T08:26:41.173Z,53.10
2022-10-14T08:29:11.642Z,55.45
2022-10-14T08:31:39.207Z,54.10
2022-10-14T08:34:06.883Z,52.28
2022-10-14T08:36:34.312Z,54.65
2022-10-14T08:39:01.832Z,52.85
2022-10-14T08:41:54.434Z,49.58
2022-10-14T08:44:43.597Z,51.05
2022-10-14T08:47:15.579Z,52.58
2022-10-14T08:50:01.691Z,50.42
2022-10-14T08:52:44.351Z,52.72
2022-10-14T08:55:39.355Z,47.13
2022-10-14T08:58:22.222Z,53.30
2022-10-14T09:00:52.580Z,47.85
2022-10-14T09:03:27.086Z,50.85
2022-10-14T09:05:59.803Z,47.63
2022-10-14T09:09:08.591Z,54.17
2022-10-14T09:11:41.414Z,52.08
2022-10-14T09:14:13.354Z,48.00
2022-10-14T09:16:41.475Z,52.38
2022-10-14T09:19:18.758Z,50.08
2022-10-14T09:21:53.537Z,48.72
2022-10-14T09:24:23.085Z,44.90
2022-10-14T09:26:58.849Z,48.13
2022-10-14T09:29:31.704Z,50.05
2022-10-14T09:32:12.623Z,48.38
2022-10-14T09:34:45.117Z,50.55
2022-10-14T09:37:30.207Z,52.60
2022-10-14T09:40:02.175Z,49.33
2022-10-14T09:42:55.582Z,54.17
2022-10-14T09:45:28.012Z,54.78
2022-10-14T09:48:07.914Z,52.03
2022-10-14T09:50:48.372Z,56.42
2022-10-14T09:53:32.563Z,49.67
2022-10-14T09:56:03.072Z,49.97
2022-10-14T09:58:44.352Z,52.78
2022-10-14T10:01:20.985Z,50.25
2022-10-14T10:03:50.486Z,51.53
2022-10-14T10:06:24.300Z,52.92
2022-10-14T10:08:57.371Z,49.75
2022-10-14T10:11:37.782Z,51.85
2022-10-14T10:14:26.294Z,50.40
2022-10-14T10:17:09.647Z,49.38
2022-10-14T10:19:40.342Z,48.58
2022-10-14T10:25:01.619Z,56.35
2022-10-14T10:27:30.415Z,54.28
2022-10-14T10:30:10.898Z,52.83
2022-10-14T10:32:48.951Z,52.90
2022-10-14T10:35:44.550Z,55.72
2022-10-14T10:38:23.877Z,53.95
2022-10-14T10:41:06.387Z,55.42
2022-10-14T10:43:42.897Z,55.95
2022-10-14T10:46:22.699Z,57.55
2022-10-14T10:48:55.417Z,56.78
2022-10-14T10:51:34.935Z,55.50
2022-10-14T10:54:02.564Z,53.40
2022-10-14T10:56:51.421Z,57.25
2022-10-14T10:59:30.320Z,53.65
2022-10-14T11:02:12.485Z,52.15
2022-10-14T11:04:49.046Z,54.85
2022-10-14T11:07:54.143Z,50.33
2022-10-14T11:10:54.268Z,49.53
2022-10-14T11:13:36.368Z,50.55
2022-10-14T11:16:26.564Z,54.33
2022-10-14T11:19:24.098Z,55.80
2022-10-14T11:21:51.488Z,54.53
2022-10-14T11:24:37.428Z,53.90
2022-10-14T11:27:27.429Z,55.45
2022-10-14T11:30:10.859Z,54.90
2022-10-14T11:33:05.927Z,54.38
2022-10-14T11:35:55.250Z,49.67
2022-10-14T11:38:28.439Z,52.05
2022-10-14T11:41:08.114Z,54.85
2022-10-14T11:43:49.738Z,52.03
2022-10-14T11:46:20.941Z,53.53
2022-10-14T11:48:51.262Z,52.97
2022-10-14T11:51:35.708Z,51.08
2022-10-14T11:54:20.272Z,50.25
2022-10-14T11:57:02.574Z,48.75
2022-10-14T11:59:50.967Z,51.00
2022-10-14T12:02:28.195Z,48.13
2022-10-14T12:05:04.585Z,49.40
2022-10-14T12:07:56.624Z,50.55
2022-10-14T12:10:33.101Z,50.45
2022-10-14T12:13:01.729Z,49.92
2022-10-14T12:18:00.906Z,51.58
2022-10-14T12:20:35.900Z,51.95
2022-10-14T12:23:07.861Z,49.17
2022-10-14T12:25:57.249Z,46.15
2022-10-14T12:28:25.109Z,47.67
2022-10-14T12:30:52.671Z,48.80
2022-10-14T12:33:23.051Z,46.58
2022-10-14T12:35:52.497Z,48.30
2022-10-14T12:38:21.558Z,48.95
2022-10-14T12:40:49.401Z,48.08
2022-10-14T12:43:26.229Z,46.30
2022-10-14T12:46:13.703Z,46.80
2022-10-14T12:48:52.324Z,43.17
2022-10-14T12:51:24.239Z,45.08
2022-10-14T12:54:15.778Z,43.95
2022-10-14T12:57:07.026Z,44.65
2022-10-14T12:59:39.656Z,46.85
2022-10-14T13:02:25.558Z,47.45
2022-10-14T13:04:55.152Z,51.50
2022-10-14T13:07:41.056Z,47.72
2022-10-14T13:10:45.997Z,42.90
2022-10-14T13:13:40.179Z,47.30
2022-10-14T13:16:33.148Z,42.95
2022-10-14T13:19:03.857Z,42.08
2022-10-14T13:21:52.903Z,42.63
2022-10-14T13:24:23.047Z,39.90
2022-10-14T13:26:53.580Z,40.28
2022-10-14T13:29:20.904Z,44.53
2022-10-14T13:31:51.336Z,41.13
2022-10-14T13:34:21.671Z,41.30
2022-10-14T13:36:58.611Z,39.00
2022-10-14T13:39:26.407Z,37.22
2022-10-14T13:41:58.032Z,39.40
2022-10-14T13:44:26.500Z,39.78
2022-10-14T13:46:54.990Z,37.17
2022-10-14T13:49:34.626Z,41.17
2022-10-14T13:52:08.197Z,38.53
2022-10-14T13:54:35.675Z,39.40
2022-10-14T13:57:38.713Z,39.20
2022-10-14T14:02:51.482Z,39.15
2022-10-14T14:05:26.733Z,39.75
2022-10-14T14:11:15.762Z,40.78
2022-10-14T14:14:01.362Z,43.47
2022-10-14T14:16:51.812Z,42.03
2022-10-14T14:19:24.916Z,42.35
2022-10-14T14:22:13.889Z,42.17
2022-10-14T14:24:41.329Z,41.60
2022-10-14T14:27:14.606Z,43.58
2022-10-14T14:29:44.442Z,38.78
2022-10-14T14:32:25.478Z,43.83
2022-10-14T14:37:52.916Z,41.88
2022-10-14T14:40:24.776Z,38.13
2022-10-14T14:43:03.899Z,39.95
2022-10-14T14:45:42.494Z,41.88
2022-10-14T14:48:13.873Z,40.95
2022-10-14T14:50:44.045Z,42.78
2022-10-14T14:53:17.178Z,46.60
2022-10-14T14:56:00.386Z,44.88
2022-10-14T14:58:44.854Z,46.97
2022-10-14T15:01:26.658Z,45.17
2022-10-14T15:04:15.273Z,47.50
2022-10-14T15:06:50.923Z,46.90
2022-10-14T15:09:48.474Z,44.85
2022-10-14T15:12:24.481Z,47.65
2022-10-14T15:14:54.428Z,50.55
2022-10-14T15:17:46.788Z,51.15
2022-10-14T15:20:26.570Z,48.72
2022-10-14T15:22:53.987Z,50.60
2022-10-14T15:25:28.868Z,52.63
2022-10-14T15:30:34.535Z,50.53
2022-10-14T15:33:15.159Z,52.15
2022-10-14T15:35:44.190Z,54.25
2022-10-14T15:38:18.883Z,58.30
2022-10-14T15:40:47.608Z,54.53
2022-10-14T15:43:23.498Z,54.22
2022-10-14T15:46:14.961Z,55.70
2022-10-14T15:48:54.901Z,52.45
2022-10-14T15:51:24.072Z,53.08
2022-10-14T15:53:51.946Z,52.25
2022-10-14T15:56:21.167Z,53.55
2022-10-14T15:58:49.193Z,53.28
2022-10-14T16:01:21.910Z,53.75
2022-10-14T16:03:52.304Z,53.30
2022-10-14T16:06:22.586Z,55.17
2022-10-14T16:08:50.158Z,54.30
2022-10-14T16:11:23.935Z,56.80
2022-10-14T16:13:51.339Z,53.20
2022-10-14T16:16:31.688Z,54.13
2022-10-14T16:19:02.361Z,53.65
2022-10-14T16:21:29.814Z,60.28
2022-10-14T16:23:58.865Z,60.22
2022-10-14T16:26:26.406Z,60.42
2022-10-14T16:28:54.004Z,58.08
2022-10-14T16:31:21.518Z,59.42
2022-10-14T16:36:24.880Z,58.58
2022-10-14T16:38:52.670Z,61.35
2022-10-14T16:41:20.344Z,56.70
2022-10-14T16:43:47.760Z,60.85
2022-10-14T16:46:18.111Z,56.97
2022-10-14T16:48:48.594Z,58.08
2022-10-14T16:51:16.092Z,51.15
2022-10-14T16:53:48.853Z,52.72
2022-10-14T16:56:37.738Z,55.65
2022-10-14T16:59:07.687Z,50.38
2022-10-14T17:01:35.274Z,53.20
2022-10-14T17:04:02.843Z,62.00
2022-10-14T17:06:30.324Z,53.78
2022-10-14T17:08:58.443Z,52.10
2022-10-14T17:11:29.292Z,50.42
2022-10-14T17:14:00.317Z,52.70
2022-10-14T17:16:28.730Z,47.53
2022-10-14T17:18:57.768Z,46.70
2022-10-14T17:21:29.324Z,50.00
2022-10-14T17:24:03.339Z,48.22
2022-10-14T17:26:32.684Z,49.83
2022-10-14T17:29:00.535Z,46.97
2022-10-14T17:31:28.951Z,48.65
2022-10-14T17:33:56.621Z,44.25
2022-10-14T17:36:30.961Z,41.47
2022-10-14T17:38:59.675Z,34.67
2022-10-14T17:41:29.058Z,35.15
2022-10-14T17:43:58.436Z,35.33
2022-10-14T17:46:27.104Z,36.50
2022-10-14T17:48:56.969Z,36.08
2022-10-14T17:51:25.929Z,33.80
2022-10-14T17:53:55.095Z,36.63
2022-10-14T17:56:22.760Z,32.20
2022-10-14T17:58:58.605Z,35.47
2022-10-14T18:01:37.531Z,34.05
2022-10-14T18:04:14.767Z,32.22
2022-10-14T18:06:44.831Z,32.90
2022-10-14T18:09:12.892Z,34.97
2022-10-14T18:14:33.522Z,33.90
2022-10-14T18:17:01.008Z,34.60
2022-10-14T18:19:28.472Z,34.65
2022-10-14T18:21:55.865Z,36.65
2022-10-14T18:24:23.597Z,35.80
2022-10-14T18:26:52.122Z,36.47
2022-10-14T18:29:19.592Z,36.50
2022-10-14T18:31:49.873Z,35.70
2022-10-14T18:34:17.716Z,34.67
2022-10-14T18:36:45.244Z,35.42
2022-10-14T18:39:12.673Z,38.88
2022-10-14T18:41:41.773Z,37.83
2022-10-14T18:44:09.261Z,36.95
2022-10-14T18:46:37.870Z,37.88
2022-10-14T18:49:08.033Z,39.35
2022-10-14T18:51:38.233Z,38.38
2022-10-14T18:54:10.896Z,35.75
2022-10-14T18:56:38.876Z,38.20
2022-10-14T18:59:09.400Z,37.53
2022-10-14T19:01:39.291Z,39.83
2022-10-14T19:04:08.995Z,38.60
2022-10-14T19:06:36.726Z,38.15
2022-10-14T19:09:04.634Z,40.22
2022-10-14T19:11:34.078Z,39.33
2022-10-14T19:14:03.868Z,39.17
2022-10-14T19:16:33.694Z,40.13
2022-10-14T19:19:07.941Z,39.63
2022-10-14T19:21:35.427Z,40.05
2022-10-14T19:24:03.328Z,42.90
2022-10-14T19:26:33.725Z,40.38
2022-10-14T19:29:04.296Z,39.88
2022-10-14T19:31:35.798Z,39.38
2022-10-14T19:34:06.457Z,38.58
2022-10-14T19:36:36.007Z,39.38
2022-10-14T19:39:05.058Z,40.25
2022-10-14T19:41:34.802Z,41.85
2022-10-14T19:44:02.257Z,40.30
2022-10-14T19:46:29.993Z,40.50
2022-10-14T19:48:59.826Z,40.28
2022-10-14T19:51:27.283Z,42.10
2022-10-14T19:53:55.810Z,41.00
2022-10-14T19:56:24.851Z,44.33
2022-10-14T19:58:54.224Z,44.13
2022-10-14T20:01:23.819Z,40.78
2022-10-14T20:03:52.017Z,40.80
2022-10-14T20:06:20.389Z,43.50
2022-10-14T20:08:47.959Z,42.72
2022-10-14T20:11:17.322Z,45.33
2022-10-14T20:13:45.239Z,42.53
2022-10-14T20:16:13.433Z,41.30
2022-10-14T20:18:41.282Z,42.90
2022-10-14T20:21:11.558Z,41.95
2022-10-14T20:23:39.577Z,44.33
2022-10-14T20:26:11.213Z,45.03
2022-10-14T20:28:39.880Z,45.03
2022-10-14T20:31:09.798Z,43.88
2022-10-14T20:33:37.574Z,45.97
2022-10-14T20:36:16.860Z,44.30
2022-10-14T20:38:44.586Z,43.17
2022-10-14T20:41:16.322Z,44.80
2022-10-14T20:43:44.675Z,45.95
2022-10-14T20:46:12.216Z,48.78
2022-10-14T20:48:39.662Z,45.72
2022-10-14T20:51:09.988Z,47.03
2022-10-14T20:53:37.616Z,44.35
2022-10-14T20:56:11.120Z,45.60
2022-10-14T20:58:39.455Z,44.10
2022-10-14T21:01:15.230Z,46.15
2022-10-14T21:03:44.873Z,44.83
2022-10-14T21:06:15.046Z,45.38
2022-10-14T21:08:42.609Z,46.28
2022-10-14T21:11:15.016Z,46.95
2022-10-14T21:13:45.945Z,47.50
2022-10-14T21:16:14.437Z,48.03
2022-10-14T21:18:45.834Z,51.60
2022-10-14T21:21:16.550Z,48.60
2022-10-14T21:23:45.218Z,48.67
2022-10-14T21:26:12.691Z,47.95
2022-10-14T21:28:40.123Z,51.38
2022-10-14T21:31:09.930Z,48.85
2022-10-14T21:33:37.734Z,49.17
2022-10-14T21:36:13.151Z,50.80
2022-10-14T21:38:40.968Z,46.80
2022-10-14T21:41:09.385Z,49.75
2022-10-14T21:43:38.245Z,49.75
2022-10-14T21:46:11.411Z,51.15
2022-10-14T21:48:39.971Z,49.58
2022-10-14T21:51:11.204Z,52.72
2022-10-14T21:53:39.983Z,49.60
2022-10-14T21:56:08.018Z,52.33
2022-10-14T21:58:36.330Z,52.13
2022-10-14T22:01:10.064Z,51.75
2022-10-14T22:03:38.768Z,50.38
2022-10-14T22:06:09.518Z,49.88
2022-10-14T22:08:40.261Z,50.35
2022-10-14T22:11:14.679Z,54.58
2022-10-14T22:13:42.403Z,51.03
2022-10-14T22:16:09.957Z,51.85
2022-10-14T22:18:37.432Z,49.92
2022-10-14T22:21:08.327Z,49.85
2022-10-14T22:23:36.598Z,51.35
2022-10-14T22:26:05.091Z,49.17
2022-10-14T22:28:32.622Z,51.08
2022-10-14T22:31:30.102Z,52.72
2022-10-14T22:33:58.966Z,50.95
2022-10-14T22:36:28.690Z,51.55
2022-10-14T22:38:57.533Z,51.78
2022-10-14T22:41:25.629Z,50.17
2022-10-14T22:43:55.409Z,49.50
2022-10-14T22:46:26.945Z,53.17
2022-10-14T22:48:56.330Z,53.58
2022-10-14T22:53:54.645Z,49.58
2022-10-14T22:56:24.532Z,51.30
2022-10-14T22:58:59.355Z,50.45
2022-10-14T23:01:28.018Z,50.58
2022-10-14T23:03:57.135Z,48.97
2022-10-14T23:06:25.051Z,50.38
2022-10-14T23:08:52.699Z,51.05
2022-10-14T23:11:22.556Z,51.75
2022-10-14T23:13:50.509Z,49.80
2022-10-14T23:16:23.447Z,50.03
2022-10-14T23:18:52.043Z,51.50
2022-10-14T23:21:30.471Z,50.47
2022-10-14T23:24:00.435Z,53.67
2022-10-14T23:26:33.230Z,51.75
2022-10-14T23:29:02.407Z,51.00
2022-10-14T23:31:32.992Z,50.75
2022-10-14T23:34:02.805Z,54.30
2022-10-14T23:36:31.092Z,52.38
2022-10-14T23:38:59.078Z,53.15
2022-10-14T23:41:26.775Z,50.10
2022-10-14T23:43:56.196Z,50.20
2022-10-14T23:46:23.730Z,50.67
2022-10-14T23:49:01.204Z,53.30
2022-10-14T23:51:35.777Z,48.60
2022-10-14T23:54:03.821Z,53.10
2022-10-14T23:56:31.222Z,53.45
2022-10-14T23:58:58.738Z,51.53
